createdAt,value
2019-02-14T00:00:41.208Z,4.10
2019-02-14T00:03:10.793Z,4.10
2019-02-14T00:05:40.325Z,4.10
2019-02-14T00:08:09.824Z,4.10
2019-02-14T00:10:39.330Z,4.10
2019-02-14T00:13:08.859Z,4.00
2019-02-14T00:15:39.316Z,4.00
2019-02-14T00:18:08.848Z,4.00
2019-02-14T00:20:38.339Z,4.00
2019-02-14T00:23:07.930Z,4.00
2019-02-14T00:25:37.620Z,3.90
2019-02-14T00:28:07.108Z,3.90
2019-02-14T00:30:36.650Z,3.90
2019-02-14T00:33:06.216Z,3.90
2019-02-14T00:35:36.126Z,3.90
2019-02-14T00:38:05.713Z,3.90
2019-02-14T00:40:35.196Z,3.80
2019-02-14T00:43:04.735Z,3.80
2019-02-14T00:45:34.767Z,3.80
2019-02-14T00:48:04.408Z,3.80
2019-02-14T00:50:37.017Z,3.80
2019-02-14T00:53:07.488Z,3.80
2019-02-14T00:55:36.980Z,3.70
2019-02-14T00:58:14.312Z,3.70
2019-02-14T01:00:45.798Z,3.70
2019-02-14T01:03:38.301Z,3.60
2019-02-14T01:06:21.557Z,3.50
2019-02-14T01:08:53.704Z,3.50
2019-02-14T01:11:46.010Z,3.50
2019-02-14T01:14:15.519Z,3.50
2019-02-14T01:16:48.053Z,3.50
2019-02-14T01:19:17.643Z,3.50
2019-02-14T01:22:03.076Z,3.50
2019-02-14T01:24:35.705Z,3.40
2019-02-14T01:27:06.184Z,3.50
2019-02-14T01:29:35.729Z,3.50
2019-02-14T01:32:06.224Z,3.50
2019-02-14T01:34:35.692Z,3.50
2019-02-14T01:37:05.364Z,3.60
2019-02-14T01:39:34.903Z,3.50
2019-02-14T01:42:04.519Z,3.50
2019-02-14T01:44:34.073Z,3.50
2019-02-14T01:47:04.634Z,3.50
2019-02-14T01:49:34.285Z,3.50
2019-02-14T01:52:03.915Z,3.50
2019-02-14T01:54:33.493Z,3.50
2019-02-14T01:57:03.230Z,3.40
2019-02-14T01:59:33.052Z,3.40
2019-02-14T02:02:03.412Z,3.40
2019-02-14T02:04:33.111Z,3.40
2019-02-14T02:07:03.872Z,3.40
2019-02-14T02:09:33.364Z,3.40
2019-02-14T02:12:03.140Z,3.30
2019-02-14T02:14:32.667Z,3.30
2019-02-14T02:17:02.196Z,3.20
2019-02-14T02:19:31.706Z,3.20
2019-02-14T02:22:01.301Z,3.20
2019-02-14T02:24:30.813Z,3.10
2019-02-14T02:27:00.360Z,3.10
2019-02-14T02:29:30.854Z,3.00
2019-02-14T02:32:00.373Z,3.00
2019-02-14T02:34:30.000Z,2.90
2019-02-14T02:36:59.497Z,2.90
2019-02-14T02:39:29.013Z,2.90
2019-02-14T02:41:58.508Z,2.90
2019-02-14T02:44:28.059Z,2.90
2019-02-14T02:46:57.590Z,2.80
2019-02-14T02:49:29.279Z,2.80
2019-02-14T02:51:58.334Z,2.70
2019-02-14T02:54:28.401Z,2.70
2019-02-14T02:56:57.920Z,2.80
2019-02-14T02:59:27.425Z,2.70
2019-02-14T03:01:56.959Z,2.70
2019-02-14T03:04:26.443Z,2.70
2019-02-14T03:06:55.956Z,2.70
2019-02-14T03:09:25.488Z,2.70
2019-02-14T03:11:54.996Z,2.60
2019-02-14T03:14:24.518Z,2.60
2019-02-14T03:16:54.056Z,2.60
2019-02-14T03:19:23.556Z,2.60
2019-02-14T03:21:54.074Z,2.60
2019-02-14T03:24:23.690Z,2.50
2019-02-14T03:26:54.223Z,2.50
2019-02-14T03:29:23.833Z,2.50
2019-02-14T03:31:54.352Z,2.50
2019-02-14T03:34:23.855Z,2.50
2019-02-14T03:36:53.385Z,2.50
2019-02-14T03:39:22.976Z,2.40
2019-02-14T03:41:52.549Z,2.40
2019-02-14T03:44:22.946Z,2.40
2019-02-14T03:46:53.418Z,2.40
2019-02-14T03:49:22.938Z,2.40
2019-02-14T03:51:52.462Z,2.40
2019-02-14T03:54:21.951Z,2.30
2019-02-14T03:56:51.484Z,2.30
2019-02-14T03:59:22.107Z,2.30
2019-02-14T04:01:51.615Z,2.30
2019-02-14T04:04:21.120Z,2.30
2019-02-14T04:06:50.723Z,2.30
2019-02-14T04:09:20.248Z,2.30
2019-02-14T04:11:49.843Z,2.30
2019-02-14T04:14:21.345Z,2.30
2019-02-14T04:16:50.873Z,2.30
2019-02-14T04:19:20.447Z,2.30
2019-02-14T04:21:50.216Z,2.20
2019-02-14T04:24:19.732Z,2.20
2019-02-14T04:26:51.052Z,2.10
2019-02-14T04:29:20.557Z,2.20
2019-02-14T04:31:50.065Z,2.10
2019-02-14T04:34:19.601Z,2.10
2019-02-14T04:36:49.113Z,2.10
2019-02-14T04:39:18.633Z,2.20
2019-02-14T04:41:48.137Z,2.10
2019-02-14T04:44:17.644Z,2.10
2019-02-14T04:46:47.169Z,2.10
2019-02-14T04:49:17.612Z,2.10
2019-02-14T04:51:47.108Z,2.10
2019-02-14T04:54:16.681Z,2.10
2019-02-14T04:56:46.176Z,2.10
2019-02-14T04:59:15.705Z,2.10
2019-02-14T05:01:45.263Z,2.10
2019-02-14T05:04:16.732Z,2.00
2019-02-14T05:06:46.236Z,2.00
2019-02-14T05:09:15.728Z,2.00
2019-02-14T05:11:45.255Z,2.00
2019-02-14T05:14:14.749Z,2.00
2019-02-14T05:16:44.266Z,1.90
2019-02-14T05:19:13.916Z,1.90
2019-02-14T05:21:43.411Z,1.90
2019-02-14T05:24:13.865Z,1.90
2019-02-14T05:26:43.419Z,1.80
2019-02-14T05:29:12.916Z,1.80
2019-02-14T05:31:43.470Z,1.80
2019-02-14T05:34:12.980Z,1.80
2019-02-14T05:36:42.510Z,1.70
2019-02-14T05:39:12.024Z,1.70
2019-02-14T05:41:42.449Z,1.60
2019-02-14T05:44:11.989Z,1.50
2019-02-14T05:46:41.505Z,1.50
2019-02-14T05:49:11.032Z,1.40
2019-02-14T05:51:40.533Z,1.30
2019-02-14T05:54:10.024Z,1.30
2019-02-14T05:56:39.612Z,1.20
2019-02-14T05:59:09.148Z,1.10
2019-02-14T06:01:38.657Z,1.00
2019-02-14T06:04:08.193Z,1.00
2019-02-14T06:06:37.685Z,0.90
2019-02-14T06:09:07.181Z,0.90
2019-02-14T06:11:37.240Z,0.80
2019-02-14T06:14:07.693Z,0.80
2019-02-14T06:16:37.186Z,0.80
2019-02-14T06:19:06.897Z,0.80
2019-02-14T06:21:36.419Z,0.80
2019-02-14T06:24:05.945Z,0.70
2019-02-14T06:26:35.446Z,0.60
2019-02-14T06:29:05.307Z,0.60
2019-02-14T06:31:34.793Z,0.60
2019-02-14T06:34:04.324Z,0.50
2019-02-14T06:36:34.744Z,0.50
2019-02-14T06:39:05.920Z,0.50
2019-02-14T06:41:35.474Z,0.60
2019-02-14T06:44:05.005Z,0.60
2019-02-14T06:46:34.528Z,0.50
2019-02-14T06:49:04.063Z,0.60
2019-02-14T06:51:33.576Z,0.60
2019-02-14T06:54:03.481Z,0.70
2019-02-14T06:56:33.308Z,0.70
2019-02-14T06:59:02.804Z,0.70
2019-02-14T07:01:32.318Z,0.60
2019-02-14T07:04:01.894Z,0.70
2019-02-14T07:06:31.389Z,0.60
2019-02-14T07:09:00.888Z,0.70
2019-02-14T07:11:30.450Z,0.70
2019-02-14T07:14:01.108Z,0.60
2019-02-14T07:16:30.605Z,0.60
2019-02-14T07:19:01.115Z,0.60
2019-02-14T07:21:30.667Z,0.50
2019-02-14T07:24:00.239Z,0.60
2019-02-14T07:26:29.755Z,0.60
2019-02-14T07:28:59.261Z,0.70
2019-02-14T07:31:28.799Z,0.90
2019-02-14T07:33:58.292Z,1.00
2019-02-14T07:36:27.849Z,1.10
2019-02-14T07:38:57.498Z,1.20
2019-02-14T07:41:27.013Z,1.30
2019-02-14T07:43:56.890Z,1.40
2019-02-14T07:46:26.429Z,1.40
2019-02-14T07:48:55.971Z,1.50
2019-02-14T07:51:25.475Z,1.50
2019-02-14T07:53:55.012Z,1.60
2019-02-14T07:56:24.503Z,1.70
2019-02-14T07:58:54.060Z,1.80
2019-02-14T08:01:23.570Z,1.90
2019-02-14T08:03:53.110Z,2.00
2019-02-14T08:06:22.638Z,2.10
2019-02-14T08:08:52.301Z,2.20
2019-02-14T08:11:21.793Z,2.20
2019-02-14T08:13:51.359Z,2.30
2019-02-14T08:16:21.868Z,2.40
2019-02-14T08:18:51.405Z,2.60
2019-02-14T08:21:20.897Z,2.70
2019-02-14T08:23:50.495Z,2.80
2019-02-14T08:26:19.986Z,2.90
2019-02-14T08:28:49.887Z,2.90
2019-02-14T08:31:19.416Z,2.90
2019-02-14T08:33:48.961Z,3.00
2019-02-14T08:36:18.529Z,3.10
2019-02-14T08:38:48.059Z,3.20
2019-02-14T08:41:18.724Z,3.40
2019-02-14T08:43:48.282Z,3.50
2019-02-14T08:46:18.754Z,3.60
2019-02-14T08:48:48.391Z,3.70
2019-02-14T08:51:18.186Z,3.80
2019-02-14T08:53:48.765Z,4.00
2019-02-14T08:56:18.314Z,4.20
2019-02-14T08:58:48.784Z,4.30
2019-02-14T09:01:18.277Z,4.40
2019-02-14T09:03:47.765Z,4.50
2019-02-14T09:06:17.317Z,4.70
2019-02-14T09:08:46.814Z,4.80
2019-02-14T09:11:16.302Z,4.90
2019-02-14T09:13:45.845Z,5.10
2019-02-14T09:16:15.361Z,5.30
2019-02-14T09:18:44.874Z,5.40
2019-02-14T09:21:14.414Z,5.50
2019-02-14T09:23:44.072Z,5.60
2019-02-14T09:26:13.652Z,5.80
2019-02-14T09:28:43.185Z,5.90
2019-02-14T09:31:12.769Z,6.00
2019-02-14T09:33:42.320Z,5.90
2019-02-14T09:36:11.850Z,6.00
2019-02-14T09:38:41.372Z,6.20
2019-02-14T09:41:11.011Z,6.40
2019-02-14T09:43:40.521Z,6.60
2019-02-14T09:46:10.027Z,6.70
2019-02-14T09:48:39.562Z,6.90
2019-02-14T09:51:09.343Z,7.10
2019-02-14T09:53:38.839Z,7.40
2019-02-14T09:56:08.412Z,7.60
2019-02-14T09:58:37.926Z,7.70
2019-02-14T10:01:07.483Z,7.80
2019-02-14T10:03:37.452Z,7.90
2019-02-14T10:06:06.960Z,8.10
2019-02-14T10:08:37.905Z,8.40
2019-02-14T10:11:07.566Z,8.60
2019-02-14T10:13:37.087Z,8.80
2019-02-14T10:16:06.586Z,9.00
2019-02-14T10:18:36.099Z,9.30
2019-02-14T10:21:07.737Z,9.60
2019-02-14T10:23:37.233Z,9.70
2019-02-14T10:26:06.739Z,9.80
2019-02-14T10:28:36.255Z,9.90
2019-02-14T10:31:05.756Z,10.00
2019-02-14T10:33:35.264Z,10.20
2019-02-14T10:36:04.831Z,10.30
2019-02-14T10:38:34.357Z,10.50
2019-02-14T10:41:03.851Z,10.40
2019-02-14T10:43:33.395Z,10.40
2019-02-14T10:46:02.922Z,10.40
2019-02-14T10:48:32.498Z,10.50
2019-02-14T10:51:02.964Z,10.70
2019-02-14T10:53:32.520Z,10.80
2019-02-14T10:56:02.018Z,10.90
2019-02-14T10:58:31.686Z,11.00
2019-02-14T11:01:01.334Z,11.10
2019-02-14T11:03:31.042Z,11.20
2019-02-14T11:06:00.620Z,11.50
2019-02-14T11:08:31.956Z,11.70
2019-02-14T11:11:01.398Z,11.90
2019-02-14T11:13:30.936Z,12.00
2019-02-14T11:16:00.470Z,12.00
2019-02-14T11:18:30.105Z,12.10
2019-02-14T11:20:59.596Z,12.10
2019-02-14T11:23:29.125Z,12.20
2019-02-14T11:25:58.677Z,12.30
2019-02-14T11:28:28.200Z,12.40
2019-02-14T11:30:57.736Z,12.60
2019-02-14T11:33:27.313Z,12.70
2019-02-14T11:35:56.864Z,12.70
2019-02-14T11:38:26.452Z,12.60
2019-02-14T11:40:56.048Z,12.40
2019-02-14T11:43:25.569Z,12.30
2019-02-14T11:45:55.169Z,12.30
2019-02-14T11:48:24.733Z,12.40
2019-02-14T11:50:54.259Z,12.50
2019-02-14T11:53:23.782Z,12.50
2019-02-14T11:55:53.309Z,12.60
2019-02-14T11:58:22.809Z,12.50
2019-02-14T12:00:52.336Z,12.50
2019-02-14T12:03:21.863Z,12.50
2019-02-14T12:05:51.386Z,12.40
2019-02-14T12:08:20.939Z,12.40
2019-02-14T12:10:51.465Z,12.50
2019-02-14T12:13:20.956Z,12.60
2019-02-14T12:15:50.480Z,12.70
2019-02-14T12:18:19.975Z,12.70
2019-02-14T12:20:49.465Z,12.80
2019-02-14T12:23:19.015Z,12.90
2019-02-14T12:25:48.529Z,12.80
2019-02-14T12:28:18.071Z,12.90
2019-02-14T12:30:47.593Z,13.00
2019-02-14T12:33:17.112Z,13.10
2019-02-14T12:35:46.697Z,13.10
2019-02-14T12:38:16.250Z,13.00
2019-02-14T12:40:45.742Z,13.00
2019-02-14T12:43:15.282Z,12.90
2019-02-14T12:45:44.763Z,12.90
2019-02-14T12:48:14.297Z,13.00
2019-02-14T12:50:43.824Z,13.10
2019-02-14T12:53:13.347Z,13.20
2019-02-14T12:55:42.849Z,13.40
2019-02-14T12:58:12.369Z,13.40
2019-02-14T13:00:41.882Z,13.50
2019-02-14T13:03:11.453Z,13.40
2019-02-14T13:05:40.930Z,13.40
2019-02-14T13:08:10.472Z,13.50
2019-02-14T13:10:40.013Z,13.50
2019-02-14T13:13:09.500Z,13.50
2019-02-14T13:15:39.948Z,13.50
2019-02-14T13:18:09.537Z,13.70
2019-02-14T13:20:39.030Z,13.90
2019-02-14T13:23:08.577Z,13.90
2019-02-14T13:25:38.166Z,14.00
2019-02-14T13:28:07.661Z,14.10
2019-02-14T13:30:37.177Z,14.20
2019-02-14T13:33:06.855Z,14.20
2019-02-14T13:35:36.336Z,14.20
2019-02-14T13:38:05.851Z,14.30
2019-02-14T13:40:36.455Z,14.40
2019-02-14T13:43:05.983Z,14.30
2019-02-14T13:45:35.476Z,14.40
2019-02-14T13:48:05.096Z,14.40
2019-02-14T13:50:34.601Z,14.40
2019-02-14T13:53:04.090Z,14.50
2019-02-14T13:55:33.636Z,14.40
2019-02-14T13:58:03.261Z,14.40
2019-02-14T14:00:32.766Z,14.50
2019-02-14T14:03:02.269Z,14.40
2019-02-14T14:05:31.801Z,14.40
2019-02-14T14:08:01.300Z,14.50
2019-02-14T14:10:31.841Z,14.50
2019-02-14T14:13:01.368Z,14.50
2019-02-14T14:15:30.891Z,14.50
2019-02-14T14:18:00.425Z,14.60
2019-02-14T14:20:29.953Z,14.60
2019-02-14T14:22:59.492Z,14.60
2019-02-14T14:25:28.982Z,14.60
2019-02-14T14:27:58.525Z,14.60
2019-02-14T14:30:28.051Z,14.60
2019-02-14T14:32:57.564Z,14.60
2019-02-14T14:35:27.095Z,14.60
2019-02-14T14:37:56.623Z,14.60
2019-02-14T14:40:26.191Z,14.60
2019-02-14T14:43:00.196Z,14.60
2019-02-14T14:45:43.163Z,14.50
2019-02-14T14:48:19.493Z,14.50
2019-02-14T14:50:44.962Z,14.60
2019-02-14T14:53:14.457Z,14.50
2019-02-14T14:55:44.010Z,14.40
2019-02-14T14:58:13.521Z,14.50
2019-02-14T15:00:43.048Z,14.40
2019-02-14T15:03:12.778Z,14.40
2019-02-14T15:05:42.317Z,14.30
2019-02-14T15:08:11.829Z,14.30
2019-02-14T15:10:41.364Z,14.30
2019-02-14T15:13:10.864Z,14.30
2019-02-14T15:15:40.366Z,14.30
2019-02-14T15:18:09.891Z,14.20
2019-02-14T15:20:39.755Z,14.20
2019-02-14T15:23:10.212Z,14.10
2019-02-14T15:25:39.764Z,14.10
2019-02-14T15:28:09.363Z,14.00
2019-02-14T15:30:38.857Z,14.00
2019-02-14T15:33:08.552Z,13.90
2019-02-14T15:35:38.050Z,13.80
2019-02-14T15:38:09.852Z,13.80
2019-02-14T15:40:39.171Z,13.70
2019-02-14T15:43:08.656Z,13.60
2019-02-14T15:45:38.153Z,13.60
2019-02-14T15:48:08.713Z,13.50
2019-02-14T15:50:38.226Z,13.50
2019-02-14T15:53:07.852Z,13.40
2019-02-14T15:55:38.990Z,13.30
2019-02-14T15:58:09.635Z,13.20
2019-02-14T16:00:39.175Z,13.10
2019-02-14T16:03:08.705Z,13.00
2019-02-14T16:05:43.897Z,12.80
2019-02-14T16:08:13.424Z,12.70
2019-02-14T16:10:42.963Z,12.50
2019-02-14T16:13:12.476Z,12.40
2019-02-14T16:15:41.977Z,12.30
2019-02-14T16:18:12.506Z,12.10
2019-02-14T16:20:43.736Z,12.00
2019-02-14T16:23:15.257Z,11.80
2019-02-14T16:25:44.789Z,11.70
2019-02-14T16:28:15.278Z,11.60
2019-02-14T16:30:44.837Z,11.40
2019-02-14T16:33:14.337Z,11.20
2019-02-14T16:35:44.820Z,11.10
2019-02-14T16:38:14.533Z,10.90
2019-02-14T16:40:44.943Z,10.80
2019-02-14T16:43:14.453Z,10.60
2019-02-14T16:45:44.009Z,10.50
2019-02-14T16:48:13.524Z,10.30
2019-02-14T16:50:43.021Z,10.20
2019-02-14T16:53:12.545Z,10.10
2019-02-14T16:55:42.058Z,9.90
2019-02-14T16:58:11.549Z,9.80
2019-02-14T17:00:41.052Z,9.70
2019-02-14T17:03:10.558Z,9.60
2019-02-14T17:05:40.075Z,9.50
2019-02-14T17:08:09.589Z,9.30
2019-02-14T17:10:39.084Z,9.20
2019-02-14T17:13:11.666Z,9.00
2019-02-14T17:15:41.218Z,8.90
2019-02-14T17:18:11.664Z,8.80
2019-02-14T17:20:41.157Z,8.60
2019-02-14T17:23:10.647Z,8.50
2019-02-14T17:25:41.124Z,8.30
2019-02-14T17:28:10.606Z,8.20
2019-02-14T17:30:40.104Z,8.10
2019-02-14T17:33:09.630Z,8.00
2019-02-14T17:35:39.489Z,7.80
2019-02-14T17:38:09.301Z,7.70
2019-02-14T17:40:45.754Z,7.60
2019-02-14T17:43:10.041Z,7.60
2019-02-14T17:45:39.536Z,7.40
2019-02-14T17:48:09.057Z,7.30
2019-02-14T17:50:38.550Z,7.10
2019-02-14T17:53:08.034Z,7.00
2019-02-14T17:55:37.575Z,6.90
2019-02-14T17:58:07.091Z,6.90
2019-02-14T18:00:36.659Z,6.70
2019-02-14T18:03:06.159Z,6.60
2019-02-14T18:05:35.696Z,6.60
2019-02-14T18:08:05.240Z,6.50
2019-02-14T18:10:34.801Z,6.40
2019-02-14T18:13:04.310Z,6.30
2019-02-14T18:15:33.816Z,6.30
2019-02-14T18:18:03.324Z,6.20
2019-02-14T18:20:33.020Z,6.10
2019-02-14T18:23:02.550Z,6.00
2019-02-14T18:25:32.190Z,5.90
2019-02-14T18:28:01.705Z,5.90
2019-02-14T18:30:31.381Z,5.80
2019-02-14T18:33:00.866Z,5.70
2019-02-14T18:35:30.370Z,5.70
2019-02-14T18:37:59.912Z,5.60
2019-02-14T18:40:29.606Z,5.50
2019-02-14T18:42:59.091Z,5.40
2019-02-14T18:45:28.588Z,5.30
2019-02-14T18:47:58.252Z,5.30
2019-02-14T18:50:27.888Z,5.20
2019-02-14T18:52:57.394Z,5.10
2019-02-14T18:55:26.998Z,5.10
2019-02-14T18:57:56.533Z,5.00
2019-02-14T19:00:26.109Z,5.00
2019-02-14T19:02:55.599Z,5.00
2019-02-14T19:05:25.241Z,4.90
2019-02-14T19:07:54.725Z,4.90
2019-02-14T19:10:24.273Z,4.80
2019-02-14T19:12:53.898Z,4.80
2019-02-14T19:15:23.749Z,4.70
2019-02-14T19:17:53.241Z,4.70
2019-02-14T19:20:22.785Z,4.60
2019-02-14T19:22:52.294Z,4.50
2019-02-14T19:25:21.784Z,4.40
2019-02-14T19:27:51.326Z,4.40
2019-02-14T19:30:20.832Z,4.30
2019-02-14T19:32:50.349Z,4.30
2019-02-14T19:35:23.119Z,4.30
2019-02-14T19:37:51.073Z,4.20
2019-02-14T19:40:21.578Z,4.20
2019-02-14T19:42:51.112Z,4.10
2019-02-14T19:45:20.612Z,4.10
2019-02-14T19:47:50.102Z,4.10
2019-02-14T19:50:19.631Z,4.10
2019-02-14T19:52:49.122Z,4.00
2019-02-14T19:55:18.641Z,3.90
2019-02-14T19:57:48.424Z,3.90
2019-02-14T20:00:17.933Z,3.80
2019-02-14T20:02:49.075Z,3.80
2019-02-14T20:05:18.557Z,3.70
2019-02-14T20:07:48.057Z,3.70
2019-02-14T20:10:17.672Z,3.60
2019-02-14T20:12:47.220Z,3.60
2019-02-14T20:15:18.560Z,3.60
2019-02-14T20:17:48.158Z,3.50
2019-02-14T20:20:17.653Z,3.40
2019-02-14T20:22:47.169Z,3.40
2019-02-14T20:25:27.285Z,3.30
2019-02-14T20:27:57.498Z,3.30
2019-02-14T20:30:27.000Z,3.20
2019-02-14T20:33:04.378Z,3.20
2019-02-14T20:35:27.733Z,3.10
2019-02-14T20:37:57.253Z,3.10
2019-02-14T20:40:26.770Z,3.00
2019-02-14T20:42:56.268Z,3.00
2019-02-14T20:45:25.812Z,3.00
2019-02-14T20:47:57.080Z,2.90
2019-02-14T20:50:26.564Z,2.90
2019-02-14T20:52:56.090Z,2.80
2019-02-14T20:55:28.557Z,2.80
2019-02-14T20:57:58.051Z,2.80
2019-02-14T21:00:31.889Z,2.80
2019-02-14T21:03:01.474Z,2.70
2019-02-14T21:05:31.098Z,2.70
2019-02-14T21:08:00.603Z,2.70
2019-02-14T21:10:30.094Z,2.70
2019-02-14T21:12:59.608Z,2.60
2019-02-14T21:15:29.138Z,2.60
2019-02-14T21:17:59.683Z,2.60
2019-02-14T21:20:29.282Z,2.60
2019-02-14T21:22:58.817Z,2.60
2019-02-14T21:25:28.365Z,2.50
2019-02-14T21:27:57.955Z,2.50
2019-02-14T21:30:27.486Z,2.40
2019-02-14T21:32:57.088Z,2.40
2019-02-14T21:35:27.644Z,2.30
2019-02-14T21:37:57.170Z,2.30
2019-02-14T21:40:26.918Z,2.30
2019-02-14T21:42:56.426Z,2.20
2019-02-14T21:45:26.038Z,2.20
2019-02-14T21:47:55.584Z,2.20
2019-02-14T21:50:25.316Z,2.10
2019-02-14T21:52:54.842Z,2.10
2019-02-14T21:55:24.420Z,2.10
2019-02-14T21:57:54.149Z,2.00
2019-02-14T22:00:29.952Z,2.00
2019-02-14T22:02:59.789Z,2.00
2019-02-14T22:05:29.310Z,1.90
2019-02-14T22:07:58.975Z,1.90
2019-02-14T22:10:28.604Z,1.80
2019-02-14T22:12:58.138Z,1.80
2019-02-14T22:15:28.943Z,1.80
2019-02-14T22:17:58.899Z,1.70
2019-02-14T22:20:28.837Z,1.70
2019-02-14T22:22:58.419Z,1.70
2019-02-14T22:25:28.203Z,1.70
2019-02-14T22:27:57.840Z,1.60
2019-02-14T22:30:27.357Z,1.60
2019-02-14T22:32:56.953Z,1.60
2019-02-14T22:35:27.758Z,1.60
2019-02-14T22:37:57.298Z,1.60
2019-02-14T22:40:27.145Z,1.50
2019-02-14T22:42:56.741Z,1.50
2019-02-14T22:45:26.418Z,1.40
2019-02-14T22:47:55.953Z,1.40
2019-02-14T22:50:25.446Z,1.40
2019-02-14T22:52:54.951Z,1.30
2019-02-14T22:55:24.480Z,1.30
2019-02-14T22:57:53.992Z,1.30
2019-02-14T23:00:41.644Z,1.20
2019-02-14T23:03:11.208Z,1.20
2019-02-14T23:05:40.781Z,1.20
2019-02-14T23:08:10.557Z,1.20
2019-02-14T23:10:40.058Z,1.20
2019-02-14T23:13:09.589Z,1.20
2019-02-14T23:15:39.316Z,1.10
2019-02-14T23:18:08.818Z,1.20
2019-02-14T23:20:38.588Z,1.10
2019-02-14T23:23:08.144Z,1.10
2019-02-14T23:25:37.729Z,1.10
2019-02-14T23:28:07.228Z,1.10
2019-02-14T23:30:37.183Z,1.00
2019-02-14T23:33:06.713Z,1.00
2019-02-14T23:35:36.208Z,1.00
2019-02-14T23:38:05.728Z,0.90
2019-02-14T23:40:35.233Z,0.90
2019-02-14T23:43:05.124Z,0.90
2019-02-14T23:45:36.393Z,0.90
2019-02-14T23:48:06.061Z,0.90
2019-02-14T23:50:35.559Z,0.90
2019-02-14T23:53:05.074Z,0.90
2019-02-14T23:55:34.585Z,0.90
2019-02-14T23:58:04.128Z,0.80
